createdAt,value
2022-12-04T00:01:20.024Z,23.81
2022-12-04T00:03:46.984Z,23.75
2022-12-04T00:06:18.812Z,23.78
2022-12-04T00:08:47.408Z,23.75
2022-12-04T00:11:16.478Z,23.73
2022-12-04T00:13:43.715Z,23.70
2022-12-04T00:16:13.752Z,23.69
2022-12-04T00:18:40.383Z,23.67
2022-12-04T00:21:10.826Z,23.65
2022-12-04T00:23:38.162Z,23.63
2022-12-04T00:26:11.701Z,23.61
2022-12-04T00:28:38.826Z,23.59
2022-12-04T00:31:27.254Z,23.58
2022-12-04T00:33:54.026Z,23.57
2022-12-04T00:36:23.413Z,23.54
2022-12-04T00:38:50.342Z,23.53
2022-12-04T00:41:19.552Z,23.50
2022-12-04T00:43:46.285Z,23.48
2022-12-04T00:46:13.182Z,23.49
2022-12-04T00:48:40.059Z,23.48
2022-12-04T00:51:10.162Z,23.46
2022-12-04T00:53:37.442Z,23.45
2022-12-04T00:56:09.361Z,23.37
2022-12-04T00:58:36.285Z,23.41
2022-12-04T01:01:08.028Z,23.31
2022-12-04T01:03:35.567Z,23.37
2022-12-04T01:06:03.370Z,23.38
2022-12-04T01:08:30.042Z,23.36
2022-12-04T01:10:57.458Z,23.34
2022-12-04T01:13:24.951Z,23.33
2022-12-04T01:15:52.534Z,23.32
2022-12-04T01:18:19.161Z,23.29
2022-12-04T01:20:48.624Z,23.30
2022-12-04T01:23:15.325Z,23.28
2022-12-04T01:25:58.628Z,23.27
2022-12-04T01:28:25.667Z,23.25
2022-12-04T01:31:10.553Z,23.24
2022-12-04T01:33:38.056Z,23.24
2022-12-04T01:36:07.284Z,23.23
2022-12-04T01:38:35.224Z,23.21
2022-12-04T01:41:02.247Z,23.20
2022-12-04T01:43:32.433Z,23.18
2022-12-04T01:46:00.520Z,23.18
2022-12-04T01:48:32.067Z,23.17
2022-12-04T01:51:05.479Z,23.16
2022-12-04T01:53:33.743Z,23.15
2022-12-04T01:56:00.680Z,23.15
2022-12-04T01:58:32.088Z,23.13
2022-12-04T02:01:08.454Z,23.12
2022-12-04T02:03:37.182Z,23.10
2022-12-04T02:06:04.456Z,23.03
2022-12-04T02:08:31.523Z,23.07
2022-12-04T02:11:09.631Z,23.07
2022-12-04T02:13:46.052Z,23.05
2022-12-04T02:16:23.834Z,23.03
2022-12-04T02:19:08.645Z,23.04
2022-12-04T02:21:38.019Z,23.03
2022-12-04T02:24:18.416Z,23.03
2022-12-04T02:26:53.749Z,23.01
2022-12-04T02:29:23.261Z,23.00
2022-12-04T02:32:09.730Z,23.00
2022-12-04T02:34:43.263Z,22.99
2022-12-04T02:37:16.037Z,22.99
2022-12-04T02:39:55.073Z,22.98
2022-12-04T02:42:30.829Z,22.96
2022-12-04T02:45:01.633Z,22.96
2022-12-04T02:47:28.295Z,22.95
2022-12-04T02:50:04.504Z,22.95
2022-12-04T02:52:41.949Z,22.93
2022-12-04T02:55:14.962Z,22.93
2022-12-04T02:57:45.565Z,22.92
2022-12-04T03:00:12.989Z,22.91
2022-12-04T03:03:00.084Z,22.91
2022-12-04T03:05:33.492Z,22.88
2022-12-04T03:08:04.671Z,22.90
2022-12-04T03:10:35.748Z,22.88
2022-12-04T03:13:10.165Z,22.87
2022-12-04T03:16:26.336Z,22.86
2022-12-04T03:19:07.245Z,22.85
2022-12-04T03:21:38.352Z,22.84
2022-12-04T03:24:18.631Z,22.84
2022-12-04T03:26:48.043Z,22.84
2022-12-04T03:29:23.973Z,22.83
2022-12-04T03:32:03.921Z,22.82
2022-12-04T03:34:51.118Z,22.81
2022-12-04T03:37:21.714Z,22.82
2022-12-04T03:39:57.883Z,22.78
2022-12-04T03:42:28.124Z,22.80
2022-12-04T03:45:01.893Z,22.79
2022-12-04T03:47:38.615Z,22.79
2022-12-04T03:50:14.164Z,22.78
2022-12-04T03:52:46.762Z,22.77
2022-12-04T03:55:37.095Z,22.76
2022-12-04T03:58:08.336Z,22.75
2022-12-04T04:00:38.170Z,22.70
2022-12-04T04:03:10.594Z,22.75
2022-12-04T04:05:41.593Z,22.74
2022-12-04T04:08:27.949Z,22.74
2022-12-04T04:11:09.126Z,22.74
2022-12-04T04:14:03.145Z,22.72
2022-12-04T04:16:51.030Z,22.72
2022-12-04T04:19:38.293Z,22.71
2022-12-04T04:22:37.788Z,22.70
2022-12-04T04:25:08.093Z,22.68
2022-12-04T04:27:34.817Z,22.68
2022-12-04T04:30:01.550Z,22.69
2022-12-04T04:32:38.917Z,22.67
2022-12-04T04:35:24.509Z,22.67
2022-12-04T04:37:56.885Z,22.66
2022-12-04T04:40:36.206Z,22.66
2022-12-04T04:43:14.872Z,22.65
2022-12-04T04:45:45.916Z,22.65
2022-12-04T04:48:16.102Z,22.65
2022-12-04T04:50:43.514Z,22.64
2022-12-04T04:53:15.685Z,22.62
2022-12-04T04:55:43.761Z,22.63
2022-12-04T04:58:16.834Z,22.62
2022-12-04T05:00:55.084Z,22.61
2022-12-04T05:03:21.823Z,22.61
2022-12-04T05:05:49.090Z,22.58
2022-12-04T05:08:15.766Z,22.61
2022-12-04T05:10:42.581Z,22.57
2022-12-04T05:13:11.988Z,22.58
2022-12-04T05:15:38.759Z,22.59
2022-12-04T05:18:05.553Z,22.59
2022-12-04T05:20:32.569Z,22.58
2022-12-04T05:22:59.262Z,22.58
2022-12-04T05:25:26.537Z,22.58
2022-12-04T05:27:53.413Z,22.57
2022-12-04T05:30:20.433Z,22.57
2022-12-04T05:32:47.098Z,22.53
2022-12-04T05:35:13.849Z,22.56
2022-12-04T05:37:40.554Z,22.56
2022-12-04T05:40:08.434Z,22.56
2022-12-04T05:42:35.314Z,22.55
2022-12-04T05:45:01.948Z,22.55
2022-12-04T05:47:30.912Z,22.54
2022-12-04T05:49:58.375Z,22.54
2022-12-04T05:52:25.131Z,22.54
2022-12-04T05:54:51.850Z,22.53
2022-12-04T05:57:18.406Z,22.54
2022-12-04T05:59:44.998Z,22.53
2022-12-04T06:02:11.681Z,22.53
2022-12-04T06:04:38.487Z,22.54
2022-12-04T06:07:05.347Z,22.53
2022-12-04T06:09:33.687Z,22.52
2022-12-04T06:12:00.311Z,22.50
2022-12-04T06:14:26.958Z,22.50
2022-12-04T06:16:53.723Z,22.49
2022-12-04T06:19:21.899Z,22.50
2022-12-04T06:21:51.809Z,22.49
2022-12-04T06:24:22.231Z,22.48
2022-12-04T06:27:18.969Z,22.47
2022-12-04T06:29:36.760Z,22.50
2022-12-04T06:32:03.510Z,22.46
2022-12-04T06:34:30.314Z,22.57
2022-12-04T06:36:56.919Z,22.62
2022-12-04T06:39:24.535Z,22.66
2022-12-04T06:41:51.165Z,22.66
2022-12-04T06:44:17.863Z,22.73
2022-12-04T06:46:47.569Z,22.76
2022-12-04T06:49:14.781Z,22.76
2022-12-04T06:51:41.487Z,22.80
2022-12-04T06:54:09.678Z,22.81
2022-12-04T06:56:36.788Z,22.82
2022-12-04T06:59:04.436Z,22.85
2022-12-04T07:01:33.469Z,22.87
2022-12-04T07:04:01.997Z,22.85
2022-12-04T07:06:30.811Z,22.90
2022-12-04T07:09:02.747Z,22.91
2022-12-04T07:11:30.242Z,22.93
2022-12-04T07:13:57.261Z,22.94
2022-12-04T07:16:25.687Z,22.95
2022-12-04T07:18:56.427Z,22.97
2022-12-04T07:21:29.226Z,22.97
2022-12-04T07:24:01.073Z,22.99
2022-12-04T07:26:30.442Z,22.99
2022-12-04T07:28:58.218Z,23.00
2022-12-04T07:31:26.853Z,23.00
2022-12-04T07:33:55.098Z,23.02
2022-12-04T07:36:22.849Z,23.02
2022-12-04T07:38:49.970Z,23.02
2022-12-04T07:41:17.904Z,23.03
2022-12-04T07:43:45.261Z,23.03
2022-12-04T07:46:15.197Z,23.04
2022-12-04T07:48:42.847Z,23.04
2022-12-04T07:51:11.769Z,23.05
2022-12-04T07:53:38.725Z,23.05
2022-12-04T07:56:07.409Z,23.04
2022-12-04T07:58:34.500Z,23.05
2022-12-04T08:01:07.162Z,23.05
2022-12-04T08:03:33.849Z,23.05
2022-12-04T08:06:02.292Z,23.06
2022-12-04T08:08:29.048Z,23.08
2022-12-04T08:10:55.998Z,23.08
2022-12-04T08:13:22.607Z,23.09
2022-12-04T08:15:49.165Z,23.10
2022-12-04T08:18:15.783Z,23.11
2022-12-04T08:20:42.378Z,23.12
2022-12-04T08:23:08.984Z,23.12
2022-12-04T08:25:39.711Z,23.14
2022-12-04T08:28:06.937Z,23.12
2022-12-04T08:30:35.668Z,23.14
2022-12-04T08:33:03.005Z,23.10
2022-12-04T08:35:29.668Z,23.13
2022-12-04T08:37:56.294Z,23.16
2022-12-04T08:40:23.855Z,23.18
2022-12-04T08:42:50.651Z,23.24
2022-12-04T08:45:17.577Z,23.32
2022-12-04T08:47:49.219Z,23.40
2022-12-04T08:50:18.898Z,23.49
2022-12-04T08:52:46.046Z,23.58
2022-12-04T08:55:12.769Z,23.65
2022-12-04T08:57:39.331Z,23.75
2022-12-04T09:00:06.994Z,23.83
2022-12-04T09:02:33.683Z,23.93
2022-12-04T09:05:00.393Z,24.02
2022-12-04T09:07:27.460Z,24.12
2022-12-04T09:09:54.129Z,24.21
2022-12-04T09:12:20.682Z,24.30
2022-12-04T09:14:47.350Z,24.37
2022-12-04T09:17:13.932Z,24.49
2022-12-04T09:19:41.157Z,24.56
2022-12-04T09:22:07.764Z,24.66
2022-12-04T09:24:34.402Z,24.74
2022-12-04T09:27:01.380Z,24.74
2022-12-04T09:29:32.249Z,24.80
2022-12-04T09:31:58.860Z,24.81
2022-12-04T09:34:25.838Z,24.80
2022-12-04T09:36:52.835Z,24.78
2022-12-04T09:39:19.402Z,24.78
2022-12-04T09:42:05.333Z,24.77
2022-12-04T09:44:45.964Z,24.78
2022-12-04T09:47:22.861Z,24.78
2022-12-04T09:50:01.046Z,24.79
2022-12-04T09:53:01.417Z,24.80
2022-12-04T09:55:33.604Z,24.82
2022-12-04T09:58:02.720Z,24.83
2022-12-04T10:00:30.215Z,24.84
2022-12-04T10:03:01.837Z,24.86
2022-12-04T10:05:50.181Z,24.87
2022-12-04T10:08:40.658Z,24.90
2022-12-04T10:11:22.353Z,24.91
2022-12-04T10:14:00.898Z,24.93
2022-12-04T10:16:46.599Z,24.97
2022-12-04T10:19:16.831Z,25.06
2022-12-04T10:22:07.704Z,25.19
2022-12-04T10:24:52.667Z,25.31
2022-12-04T10:27:28.538Z,25.42
2022-12-04T10:29:59.192Z,25.54
2022-12-04T10:32:29.680Z,25.64
2022-12-04T10:35:00.955Z,25.75
2022-12-04T10:37:27.829Z,25.83
2022-12-04T10:39:58.649Z,25.90
2022-12-04T10:42:31.524Z,25.97
2022-12-04T10:44:58.350Z,26.02
2022-12-04T10:47:25.526Z,26.13
2022-12-04T10:50:02.354Z,26.20
2022-12-04T10:52:29.193Z,26.28
2022-12-04T10:55:00.105Z,26.33
2022-12-04T10:57:37.807Z,26.40
2022-12-04T11:00:24.788Z,26.47
2022-12-04T11:02:52.788Z,26.53
2022-12-04T11:05:31.637Z,26.60
2022-12-04T11:08:00.282Z,26.64
2022-12-04T11:10:38.800Z,26.65
2022-12-04T11:13:14.932Z,26.69
2022-12-04T11:15:55.433Z,26.71
2022-12-04T11:18:27.239Z,26.76
2022-12-04T11:20:58.751Z,26.82
2022-12-04T11:23:26.968Z,26.87
2022-12-04T11:26:02.110Z,26.92
2022-12-04T11:28:47.884Z,26.95
2022-12-04T11:31:20.193Z,27.03
2022-12-04T11:33:53.511Z,27.09
2022-12-04T11:36:35.018Z,27.11
2022-12-04T11:39:15.414Z,27.19
2022-12-04T11:41:42.401Z,27.25
2022-12-04T11:44:25.366Z,27.28
2022-12-04T11:46:58.244Z,27.33
2022-12-04T11:49:26.601Z,27.37
2022-12-04T11:52:01.956Z,27.41
2022-12-04T11:54:32.632Z,27.42
2022-12-04T11:57:08.687Z,27.44
2022-12-04T12:00:09.447Z,27.43
2022-12-04T12:02:50.252Z,27.35
2022-12-04T12:05:53.682Z,27.34
2022-12-04T12:08:23.172Z,27.32
2022-12-04T12:10:55.694Z,27.31
2022-12-04T12:13:37.040Z,27.26
2022-12-04T12:16:18.390Z,27.22
2022-12-04T12:19:22.713Z,27.16
2022-12-04T12:22:19.126Z,27.08
2022-12-04T12:25:13.090Z,26.97
2022-12-04T12:27:53.511Z,26.90
2022-12-04T12:30:21.820Z,26.82
2022-12-04T12:33:20.316Z,26.74
2022-12-04T12:36:01.576Z,26.68
2022-12-04T12:38:34.779Z,26.61
2022-12-04T12:41:07.569Z,26.58
2022-12-04T12:43:37.300Z,26.53
2022-12-04T12:46:10.474Z,26.48
2022-12-04T12:49:06.832Z,26.44
2022-12-04T12:51:37.873Z,26.39
2022-12-04T12:54:41.390Z,26.34
2022-12-04T12:57:17.808Z,26.29
2022-12-04T13:00:28.902Z,26.25
2022-12-04T13:03:00.428Z,26.19
2022-12-04T13:05:41.266Z,26.15
2022-12-04T13:08:46.389Z,26.12
2022-12-04T13:11:18.535Z,26.06
2022-12-04T13:13:48.574Z,26.00
2022-12-04T13:16:21.115Z,25.98
2022-12-04T13:18:53.642Z,25.95
2022-12-04T13:21:30.103Z,25.90
2022-12-04T13:24:05.692Z,25.86
2022-12-04T13:26:52.629Z,25.80
2022-12-04T13:29:53.593Z,25.78
2022-12-04T13:32:49.627Z,25.72
2022-12-04T13:35:24.550Z,25.68
2022-12-04T13:38:08.901Z,25.62
2022-12-04T13:40:41.463Z,25.61
2022-12-04T13:43:33.554Z,25.58
2022-12-04T13:46:03.710Z,25.55
2022-12-04T13:48:37.690Z,25.51
2022-12-04T13:51:08.242Z,25.49
2022-12-04T13:53:37.664Z,25.48
2022-12-04T13:56:09.490Z,25.48
2022-12-04T13:58:38.082Z,25.44
2022-12-04T14:01:06.370Z,25.45
2022-12-04T14:03:35.876Z,25.42
2022-12-04T14:06:05.439Z,25.40
2022-12-04T14:08:39.096Z,25.39
2022-12-04T14:11:12.839Z,25.35
2022-12-04T14:13:42.374Z,25.38
2022-12-04T14:16:38.552Z,25.36
2022-12-04T14:19:06.626Z,25.34
2022-12-04T14:21:44.641Z,25.32
2022-12-04T14:24:29.718Z,25.32
2022-12-04T14:27:14.059Z,25.30
2022-12-04T14:29:53.709Z,25.29
2022-12-04T14:32:27.666Z,25.27
2022-12-04T14:34:55.052Z,25.27
2022-12-04T14:37:36.769Z,25.26
2022-12-04T14:40:07.631Z,25.25
2022-12-04T14:42:38.840Z,25.24
2022-12-04T14:45:28.749Z,25.23
2022-12-04T14:48:18.735Z,25.21
2022-12-04T14:51:12.766Z,25.22
2022-12-04T14:54:16.776Z,25.21
2022-12-04T14:57:04.350Z,25.19
2022-12-04T14:59:51.264Z,25.19
2022-12-04T15:02:20.404Z,25.16
2022-12-04T15:04:49.009Z,25.15
2022-12-04T15:07:20.933Z,25.14
2022-12-04T15:10:14.508Z,25.12
2022-12-04T15:13:01.359Z,25.13
2022-12-04T15:15:29.716Z,25.10
2022-12-04T15:17:58.179Z,25.10
2022-12-04T15:20:25.247Z,25.07
2022-12-04T15:22:53.948Z,25.09
2022-12-04T15:29:34.881Z,25.03
2022-12-04T15:32:05.859Z,25.05
2022-12-04T15:34:44.054Z,25.02
2022-12-04T15:37:20.533Z,25.02
2022-12-04T15:39:49.863Z,25.00
2022-12-04T15:42:21.776Z,25.01
2022-12-04T15:44:55.102Z,24.99
2022-12-04T15:47:23.986Z,24.99
2022-12-04T15:49:50.789Z,24.98
2022-12-04T15:52:19.848Z,24.98
2022-12-04T15:54:56.526Z,24.97
2022-12-04T15:57:35.756Z,24.95
2022-12-04T16:00:05.269Z,24.95
2022-12-04T16:02:34.349Z,24.95
2022-12-04T16:05:22.798Z,24.91
2022-12-04T16:07:53.025Z,24.93
2022-12-04T16:10:29.828Z,24.91
2022-12-04T16:12:59.068Z,24.91
2022-12-04T16:15:31.913Z,24.90
2022-12-04T16:17:59.786Z,24.90
2022-12-04T16:20:27.489Z,24.89
2022-12-04T16:22:54.771Z,24.88
2022-12-04T16:25:21.454Z,24.89
2022-12-04T16:27:59.137Z,24.88
2022-12-04T16:30:36.060Z,24.87
2022-12-04T16:33:02.840Z,24.86
2022-12-04T16:35:31.424Z,24.85
2022-12-04T16:37:59.047Z,24.87
2022-12-04T16:40:26.118Z,24.88
2022-12-04T16:42:52.970Z,24.91
2022-12-04T16:45:26.461Z,24.98
2022-12-04T16:47:53.420Z,25.03
2022-12-04T16:50:20.307Z,25.11
2022-12-04T16:52:47.265Z,25.22
2022-12-04T16:55:31.572Z,25.32
2022-12-04T16:57:58.706Z,25.44
2022-12-04T17:00:25.398Z,25.53
2022-12-04T17:02:53.090Z,25.67
2022-12-04T17:05:25.460Z,25.76
2022-12-04T17:07:52.584Z,25.89
2022-12-04T17:10:23.738Z,25.99
2022-12-04T17:12:54.666Z,26.10
2022-12-04T17:15:22.503Z,26.19
2022-12-04T17:17:49.132Z,26.28
2022-12-04T17:20:17.764Z,26.34
2022-12-04T17:22:44.670Z,26.42
2022-12-04T17:25:11.409Z,26.49
2022-12-04T17:27:38.630Z,26.56
2022-12-04T17:30:06.408Z,26.62
2022-12-04T17:32:34.835Z,26.71
2022-12-04T17:35:02.494Z,26.77
2022-12-04T17:37:31.887Z,26.85
2022-12-04T17:39:58.832Z,26.92
2022-12-04T17:42:25.717Z,27.00
2022-12-04T17:44:52.273Z,27.08
2022-12-04T17:47:20.593Z,27.13
2022-12-04T17:49:47.146Z,27.19
2022-12-04T17:52:13.713Z,27.27
2022-12-04T17:54:40.312Z,27.34
2022-12-04T17:57:07.354Z,27.42
2022-12-04T17:59:33.924Z,27.49
2022-12-04T18:02:00.509Z,27.54
2022-12-04T18:04:29.002Z,27.61
2022-12-04T18:06:56.420Z,27.65
2022-12-04T18:09:23.389Z,27.69
2022-12-04T18:11:50.046Z,27.75
2022-12-04T18:14:18.965Z,27.80
2022-12-04T18:16:48.184Z,27.84
2022-12-04T18:19:15.057Z,27.89
2022-12-04T18:21:42.162Z,27.91
2022-12-04T18:24:10.225Z,27.94
2022-12-04T18:26:39.473Z,28.01
2022-12-04T18:29:07.149Z,28.01
2022-12-04T18:31:34.036Z,28.07
2022-12-04T18:34:00.689Z,28.12
2022-12-04T18:36:31.852Z,28.14
2022-12-04T18:39:04.449Z,28.14
2022-12-04T18:41:31.491Z,28.21
2022-12-04T18:43:58.537Z,28.22
2022-12-04T18:46:26.099Z,28.28
2022-12-04T18:48:54.452Z,28.28
2022-12-04T18:51:39.306Z,28.34
2022-12-04T18:54:12.049Z,28.41
2022-12-04T18:56:38.964Z,28.44
2022-12-04T18:59:12.603Z,28.48
2022-12-04T19:01:40.224Z,28.49
2022-12-04T19:04:09.069Z,28.54
2022-12-04T19:06:47.312Z,28.58
2022-12-04T19:09:16.944Z,28.60
2022-12-04T19:11:44.138Z,28.61
2022-12-04T19:14:21.027Z,28.66
2022-12-04T19:16:50.304Z,28.71
2022-12-04T19:19:17.061Z,28.71
2022-12-04T19:21:44.352Z,28.76
2022-12-04T19:24:11.194Z,28.79
2022-12-04T19:26:38.148Z,28.82
2022-12-04T19:29:05.536Z,28.84
2022-12-04T19:31:34.191Z,28.87
2022-12-04T19:34:01.177Z,28.87
2022-12-04T19:36:30.331Z,28.89
2022-12-04T19:38:58.150Z,28.93
2022-12-04T19:41:28.149Z,28.95
2022-12-04T19:43:56.939Z,28.97
2022-12-04T19:46:26.903Z,29.00
2022-12-04T19:48:56.953Z,28.98
2022-12-04T19:51:24.513Z,29.03
2022-12-04T19:53:51.856Z,29.04
2022-12-04T19:56:24.470Z,29.07
2022-12-04T19:58:53.039Z,28.92
2022-12-04T20:01:21.305Z,28.75
2022-12-04T20:03:47.915Z,28.57
2022-12-04T20:06:17.950Z,28.41
2022-12-04T20:08:45.239Z,28.27
2022-12-04T20:11:17.797Z,28.15
2022-12-04T20:13:46.067Z,28.02
2022-12-04T20:16:16.224Z,27.91
2022-12-04T20:18:43.394Z,27.76
2022-12-04T20:21:13.245Z,27.63
2022-12-04T20:23:44.313Z,27.51
2022-12-04T20:26:12.847Z,27.38
2022-12-04T20:28:40.125Z,27.28
2022-12-04T20:31:20.080Z,27.18
2022-12-04T20:33:48.425Z,27.11
2022-12-04T20:36:18.812Z,27.01
2022-12-04T20:38:45.958Z,26.93
2022-12-04T20:41:15.856Z,26.86
2022-12-04T20:43:46.869Z,26.78
2022-12-04T20:46:15.070Z,26.70
2022-12-04T20:48:48.121Z,26.64
2022-12-04T20:51:17.312Z,26.56
2022-12-04T20:53:44.744Z,26.41
2022-12-04T20:56:11.794Z,26.44
2022-12-04T20:58:39.007Z,26.38
2022-12-04T21:01:10.785Z,26.33
2022-12-04T21:03:40.310Z,26.27
2022-12-04T21:06:35.819Z,26.19
2022-12-04T21:09:05.910Z,26.14
2022-12-04T21:11:35.726Z,26.03
2022-12-04T21:14:24.805Z,25.99
2022-12-04T21:16:52.193Z,25.96
2022-12-04T21:19:20.480Z,25.93
2022-12-04T21:21:47.512Z,25.88
2022-12-04T21:24:15.929Z,25.80
2022-12-04T21:26:43.159Z,25.77
2022-12-04T21:29:09.989Z,25.69
2022-12-04T21:31:39.358Z,25.66
2022-12-04T21:34:08.825Z,25.60
2022-12-04T21:36:35.942Z,25.58
2022-12-04T21:39:02.884Z,25.53
2022-12-04T21:41:47.825Z,25.50
2022-12-04T21:44:16.955Z,25.45
2022-12-04T21:46:44.301Z,25.42
2022-12-04T21:49:11.238Z,25.38
2022-12-04T21:51:56.865Z,25.35
2022-12-04T21:54:25.660Z,25.30
2022-12-04T21:56:52.550Z,25.26
2022-12-04T21:59:21.015Z,25.22
2022-12-04T22:01:47.633Z,25.20
2022-12-04T22:04:14.367Z,25.16
2022-12-04T22:06:40.961Z,25.14
2022-12-04T22:09:09.727Z,25.08
2022-12-04T22:11:36.845Z,25.07
2022-12-04T22:14:03.870Z,25.04
2022-12-04T22:16:32.842Z,25.01
2022-12-04T22:19:01.595Z,24.98
2022-12-04T22:21:29.596Z,24.95
2022-12-04T22:23:57.800Z,24.93
2022-12-04T22:26:24.784Z,24.91
2022-12-04T22:28:52.049Z,24.88
2022-12-04T22:31:21.000Z,24.83
2022-12-04T22:33:49.901Z,24.81
2022-12-04T22:36:19.224Z,24.80
2022-12-04T22:39:08.827Z,24.77
2022-12-04T22:41:32.661Z,24.74
2022-12-04T22:43:59.225Z,24.71
2022-12-04T22:46:26.992Z,24.66
2022-12-04T22:48:54.420Z,24.65
2022-12-04T22:51:23.819Z,24.63
2022-12-04T22:53:53.120Z,24.61
2022-12-04T22:56:27.903Z,24.58
2022-12-04T22:58:55.010Z,24.57
2022-12-04T23:01:24.477Z,24.54
2022-12-04T23:03:51.956Z,24.53
2022-12-04T23:06:20.999Z,24.50
2022-12-04T23:08:47.877Z,24.48
2022-12-04T23:11:18.943Z,24.46
2022-12-04T23:14:04.208Z,24.42
2022-12-04T23:16:33.158Z,24.39
2022-12-04T23:18:59.885Z,24.38
2022-12-04T23:21:27.472Z,24.36
2022-12-04T23:23:54.966Z,24.35
2022-12-04T23:26:24.732Z,24.33
2022-12-04T23:28:51.993Z,24.31
2022-12-04T23:31:19.005Z,24.30
2022-12-04T23:33:45.573Z,24.28
2022-12-04T23:36:13.007Z,24.26
2022-12-04T23:38:40.781Z,24.26
2022-12-04T23:41:11.298Z,24.23
2022-12-04T23:43:42.673Z,24.22
2022-12-04T23:46:11.696Z,24.20
2022-12-04T23:48:43.561Z,24.18
2022-12-04T23:51:11.757Z,24.17
2022-12-04T23:53:38.853Z,24.15
2022-12-04T23:56:18.667Z,24.14
2022-12-04T23:58:47.338Z,24.12
